sensor_id;sensor_type;location;lat;lon;timestamp;temperature;humidity
6538;DHT22;3302;52.508;13.454;2023-04-25T00:01:21;9.00;93.50
6538;DHT22;3302;52.508;13.454;2023-04-25T00:03:49;9.10;93.50
6538;DHT22;3302;52.508;13.454;2023-04-25T00:06:16;9.00;93.30
6538;DHT22;3302;52.508;13.454;2023-04-25T00:08:43;9.00;93.30
6538;DHT22;3302;52.508;13.454;2023-04-25T00:11:09;8.90;93.40
6538;DHT22;3302;52.508;13.454;2023-04-25T00:13:35;8.90;93.20
6538;DHT22;3302;52.508;13.454;2023-04-25T00:16:01;8.90;93.00
6538;DHT22;3302;52.508;13.454;2023-04-25T00:18:28;8.90;92.70
6538;DHT22;3302;52.508;13.454;2023-04-25T00:20:58;8.90;92.50
6538;DHT22;3302;52.508;13.454;2023-04-25T00:23:24;8.90;92.50
6538;DHT22;3302;52.508;13.454;2023-04-25T00:25:50;8.90;92.40
6538;DHT22;3302;52.508;13.454;2023-04-25T00:28:16;8.80;92.40
6538;DHT22;3302;52.508;13.454;2023-04-25T00:30:42;8.90;92.40
6538;DHT22;3302;52.508;13.454;2023-04-25T00:33:09;8.90;92.00
6538;DHT22;3302;52.508;13.454;2023-04-25T00:35:35;8.80;92.30
6538;DHT22;3302;52.508;13.454;2023-04-25T00:38:01;8.80;92.20
6538;DHT22;3302;52.508;13.454;2023-04-25T00:40:27;8.90;92.00
6538;DHT22;3302;52.508;13.454;2023-04-25T00:42:53;8.90;92.00
6538;DHT22;3302;52.508;13.454;2023-04-25T00:45:19;8.90;92.00
6538;DHT22;3302;52.508;13.454;2023-04-25T00:47:46;8.80;92.00
6538;DHT22;3302;52.508;13.454;2023-04-25T00:50:13;8.80;92.00
6538;DHT22;3302;52.508;13.454;2023-04-25T00:52:40;8.80;92.20
6538;DHT22;3302;52.508;13.454;2023-04-25T00:55:07;8.80;92.50
6538;DHT22;3302;52.508;13.454;2023-04-25T00:57:33;8.80;92.10
6538;DHT22;3302;52.508;13.454;2023-04-25T01:00:00;8.80;92.20
6538;DHT22;3302;52.508;13.454;2023-04-25T01:02:26;8.80;92.20
6538;DHT22;3302;52.508;13.454;2023-04-25T01:04:52;8.80;92.30
6538;DHT22;3302;52.508;13.454;2023-04-25T01:07:18;8.80;92.20
6538;DHT22;3302;52.508;13.454;2023-04-25T01:09:44;8.70;92.30
6538;DHT22;3302;52.508;13.454;2023-04-25T01:12:10;8.70;92.40
6538;DHT22;3302;52.508;13.454;2023-04-25T01:14:37;8.80;92.40
6538;DHT22;3302;52.508;13.454;2023-04-25T01:17:02;8.70;92.40
6538;DHT22;3302;52.508;13.454;2023-04-25T01:19:28;8.70;92.50
6538;DHT22;3302;52.508;13.454;2023-04-25T01:21:55;8.70;92.60
6538;DHT22;3302;52.508;13.454;2023-04-25T01:24:21;8.70;92.60
6538;DHT22;3302;52.508;13.454;2023-04-25T01:26:47;8.70;92.50
6538;DHT22;3302;52.508;13.454;2023-04-25T01:29:17;8.70;92.60
6538;DHT22;3302;52.508;13.454;2023-04-25T01:31:44;8.80;92.50
6538;DHT22;3302;52.508;13.454;2023-04-25T01:34:10;8.80;92.50
6538;DHT22;3302;52.508;13.454;2023-04-25T01:36:36;8.70;92.50
6538;DHT22;3302;52.508;13.454;2023-04-25T01:39:02;8.70;92.50
6538;DHT22;3302;52.508;13.454;2023-04-25T01:41:28;8.70;92.30
6538;DHT22;3302;52.508;13.454;2023-04-25T01:43:55;8.70;92.40
6538;DHT22;3302;52.508;13.454;2023-04-25T01:46:20;8.70;92.50
6538;DHT22;3302;52.508;13.454;2023-04-25T01:48:47;8.70;92.40
6538;DHT22;3302;52.508;13.454;2023-04-25T01:51:12;8.70;92.30
6538;DHT22;3302;52.508;13.454;2023-04-25T01:53:39;8.80;92.30
6538;DHT22;3302;52.508;13.454;2023-04-25T01:56:05;8.80;92.30
6538;DHT22;3302;52.508;13.454;2023-04-25T01:58:30;8.70;92.30
6538;DHT22;3302;52.508;13.454;2023-04-25T02:00:56;8.70;92.30
6538;DHT22;3302;52.508;13.454;2023-04-25T02:03:22;8.70;92.40
6538;DHT22;3302;52.508;13.454;2023-04-25T02:05:48;8.70;92.30
6538;DHT22;3302;52.508;13.454;2023-04-25T02:08:14;8.70;92.40
6538;DHT22;3302;52.508;13.454;2023-04-25T02:10:40;8.70;92.40
6538;DHT22;3302;52.508;13.454;2023-04-25T02:13:05;8.80;92.50
6538;DHT22;3302;52.508;13.454;2023-04-25T02:15:32;8.70;92.80
6538;DHT22;3302;52.508;13.454;2023-04-25T02:17:57;8.70;92.60
6538;DHT22;3302;52.508;13.454;2023-04-25T02:20:26;8.70;92.60
6538;DHT22;3302;52.508;13.454;2023-04-25T02:22:52;8.70;92.50
6538;DHT22;3302;52.508;13.454;2023-04-25T02:25:20;8.70;92.60
6538;DHT22;3302;52.508;13.454;2023-04-25T02:27:49;8.60;92.60
6538;DHT22;3302;52.508;13.454;2023-04-25T02:30:17;8.60;92.60
6538;DHT22;3302;52.508;13.454;2023-04-25T02:32:43;8.70;92.60
6538;DHT22;3302;52.508;13.454;2023-04-25T02:35:09;8.60;92.70
6538;DHT22;3302;52.508;13.454;2023-04-25T02:37:37;8.70;92.60
6538;DHT22;3302;52.508;13.454;2023-04-25T02:40:03;8.70;92.60
6538;DHT22;3302;52.508;13.454;2023-04-25T02:42:30;8.70;92.70
6538;DHT22;3302;52.508;13.454;2023-04-25T02:44:56;8.60;92.70
6538;DHT22;3302;52.508;13.454;2023-04-25T02:47:22;8.60;92.80
6538;DHT22;3302;52.508;13.454;2023-04-25T02:49:47;8.60;92.80
6538;DHT22;3302;52.508;13.454;2023-04-25T02:52:13;8.70;92.80
6538;DHT22;3302;52.508;13.454;2023-04-25T02:54:42;8.60;92.70
6538;DHT22;3302;52.508;13.454;2023-04-25T02:57:08;8.60;92.70
6538;DHT22;3302;52.508;13.454;2023-04-25T02:59:34;8.60;92.80
6538;DHT22;3302;52.508;13.454;2023-04-25T03:02:00;8.60;92.80
6538;DHT22;3302;52.508;13.454;2023-04-25T03:04:26;8.60;92.80
6538;DHT22;3302;52.508;13.454;2023-04-25T03:06:52;8.60;93.00
6538;DHT22;3302;52.508;13.454;2023-04-25T03:09:18;8.60;92.80
6538;DHT22;3302;52.508;13.454;2023-04-25T03:11:45;8.70;92.70
6538;DHT22;3302;52.508;13.454;2023-04-25T03:14:12;8.70;92.70
6538;DHT22;3302;52.508;13.454;2023-04-25T03:16:38;8.70;93.10
6538;DHT22;3302;52.508;13.454;2023-04-25T03:19:04;8.60;92.80
6538;DHT22;3302;52.508;13.454;2023-04-25T03:21:33;8.60;92.90
6538;DHT22;3302;52.508;13.454;2023-04-25T03:24:01;8.60;93.00
6538;DHT22;3302;52.508;13.454;2023-04-25T03:26:27;8.60;92.80
6538;DHT22;3302;52.508;13.454;2023-04-25T03:28:53;8.50;92.90
6538;DHT22;3302;52.508;13.454;2023-04-25T03:31:19;8.50;93.00
6538;DHT22;3302;52.508;13.454;2023-04-25T03:33:45;8.60;92.90
6538;DHT22;3302;52.508;13.454;2023-04-25T03:36:11;8.50;93.00
6538;DHT22;3302;52.508;13.454;2023-04-25T03:38:36;8.40;93.00
6538;DHT22;3302;52.508;13.454;2023-04-25T03:41:02;8.50;93.30
6538;DHT22;3302;52.508;13.454;2023-04-25T03:43:28;8.60;93.10
6538;DHT22;3302;52.508;13.454;2023-04-25T03:45:54;8.40;93.20
6538;DHT22;3302;52.508;13.454;2023-04-25T03:48:20;8.50;93.30
6538;DHT22;3302;52.508;13.454;2023-04-25T03:50:50;8.40;93.30
6538;DHT22;3302;52.508;13.454;2023-04-25T03:53:16;8.50;93.30
6538;DHT22;3302;52.508;13.454;2023-04-25T03:55:41;8.50;93.50
6538;DHT22;3302;52.508;13.454;2023-04-25T03:58:07;8.40;93.40
6538;DHT22;3302;52.508;13.454;2023-04-25T04:00:35;8.40;93.40
6538;DHT22;3302;52.508;13.454;2023-04-25T04:03:01;8.40;93.30
6538;DHT22;3302;52.508;13.454;2023-04-25T04:05:27;8.40;93.30
6538;DHT22;3302;52.508;13.454;2023-04-25T04:07:53;8.40;93.30
6538;DHT22;3302;52.508;13.454;2023-04-25T04:10:19;8.40;93.50
6538;DHT22;3302;52.508;13.454;2023-04-25T04:12:45;8.30;93.50
6538;DHT22;3302;52.508;13.454;2023-04-25T04:15:11;8.40;93.60
6538;DHT22;3302;52.508;13.454;2023-04-25T04:17:37;8.40;93.50
6538;DHT22;3302;52.508;13.454;2023-04-25T04:20:04;8.30;93.70
6538;DHT22;3302;52.508;13.454;2023-04-25T04:22:30;8.30;93.70
6538;DHT22;3302;52.508;13.454;2023-04-25T04:24:55;8.40;93.70
6538;DHT22;3302;52.508;13.454;2023-04-25T04:27:22;8.30;93.60
6538;DHT22;3302;52.508;13.454;2023-04-25T04:29:48;8.30;93.60
6538;DHT22;3302;52.508;13.454;2023-04-25T04:32:14;8.40;93.60
6538;DHT22;3302;52.508;13.454;2023-04-25T04:34:40;8.40;93.70
6538;DHT22;3302;52.508;13.454;2023-04-25T04:37:07;8.40;93.70
6538;DHT22;3302;52.508;13.454;2023-04-25T04:39:33;8.40;93.60
6538;DHT22;3302;52.508;13.454;2023-04-25T04:41:59;8.40;93.60
6538;DHT22;3302;52.508;13.454;2023-04-25T04:44:27;8.50;93.60
6538;DHT22;3302;52.508;13.454;2023-04-25T04:46:54;8.40;93.50
6538;DHT22;3302;52.508;13.454;2023-04-25T04:49:21;8.50;93.60
6538;DHT22;3302;52.508;13.454;2023-04-25T04:51:46;8.50;93.50
6538;DHT22;3302;52.508;13.454;2023-04-25T04:54:13;8.40;93.60
6538;DHT22;3302;52.508;13.454;2023-04-25T04:56:39;8.40;93.70
6538;DHT22;3302;52.508;13.454;2023-04-25T04:59:04;8.50;93.50
6538;DHT22;3302;52.508;13.454;2023-04-25T05:01:30;8.40;93.70
6538;DHT22;3302;52.508;13.454;2023-04-25T05:03:56;8.50;93.70
6538;DHT22;3302;52.508;13.454;2023-04-25T05:06:27;8.40;93.60
6538;DHT22;3302;52.508;13.454;2023-04-25T05:08:54;8.50;93.70
6538;DHT22;3302;52.508;13.454;2023-04-25T05:11:20;8.50;93.60
6538;DHT22;3302;52.508;13.454;2023-04-25T05:13:46;8.50;93.70
6538;DHT22;3302;52.508;13.454;2023-04-25T05:16:15;8.50;93.50
6538;DHT22;3302;52.508;13.454;2023-04-25T05:18:41;8.40;94.00
6538;DHT22;3302;52.508;13.454;2023-04-25T05:21:07;8.40;93.80
6538;DHT22;3302;52.508;13.454;2023-04-25T05:23:33;8.60;93.60
6538;DHT22;3302;52.508;13.454;2023-04-25T05:25:59;8.60;93.70
6538;DHT22;3302;52.508;13.454;2023-04-25T05:28:24;8.50;93.60
6538;DHT22;3302;52.508;13.454;2023-04-25T05:30:51;8.50;94.10
6538;DHT22;3302;52.508;13.454;2023-04-25T05:33:17;8.60;93.70
6538;DHT22;3302;52.508;13.454;2023-04-25T05:35:42;8.60;93.60
6538;DHT22;3302;52.508;13.454;2023-04-25T05:38:08;8.50;93.50
6538;DHT22;3302;52.508;13.454;2023-04-25T05:40:35;8.50;93.40
6538;DHT22;3302;52.508;13.454;2023-04-25T05:43:01;8.60;93.50
6538;DHT22;3302;52.508;13.454;2023-04-25T05:45:26;8.70;93.50
6538;DHT22;3302;52.508;13.454;2023-04-25T05:47:52;8.60;93.60
6538;DHT22;3302;52.508;13.454;2023-04-25T05:50:18;8.60;93.60
6538;DHT22;3302;52.508;13.454;2023-04-25T05:52:44;8.60;93.80
6538;DHT22;3302;52.508;13.454;2023-04-25T05:55:09;8.60;93.70
6538;DHT22;3302;52.508;13.454;2023-04-25T05:57:35;8.60;93.80
6538;DHT22;3302;52.508;13.454;2023-04-25T06:00:01;8.50;94.30
6538;DHT22;3302;52.508;13.454;2023-04-25T06:02:27;8.50;94.10
6538;DHT22;3302;52.508;13.454;2023-04-25T06:04:53;8.60;94.00
6538;DHT22;3302;52.508;13.454;2023-04-25T06:07:19;8.50;94.20
6538;DHT22;3302;52.508;13.454;2023-04-25T06:09:46;8.60;94.30
6538;DHT22;3302;52.508;13.454;2023-04-25T06:12:12;8.50;94.60
6538;DHT22;3302;52.508;13.454;2023-04-25T06:14:38;8.50;95.00
6538;DHT22;3302;52.508;13.454;2023-04-25T06:17:04;8.60;94.60
6538;DHT22;3302;52.508;13.454;2023-04-25T06:19:34;8.50;94.80
6538;DHT22;3302;52.508;13.454;2023-04-25T06:22:01;8.60;94.80
6538;DHT22;3302;52.508;13.454;2023-04-25T06:24:27;8.60;94.90
6538;DHT22;3302;52.508;13.454;2023-04-25T06:26:53;8.60;95.00
6538;DHT22;3302;52.508;13.454;2023-04-25T06:29:18;8.60;94.80
6538;DHT22;3302;52.508;13.454;2023-04-25T06:31:44;8.60;95.10
6538;DHT22;3302;52.508;13.454;2023-04-25T06:34:10;8.60;95.30
6538;DHT22;3302;52.508;13.454;2023-04-25T06:36:36;8.60;95.20
6538;DHT22;3302;52.508;13.454;2023-04-25T06:39:02;8.60;95.20
6538;DHT22;3302;52.508;13.454;2023-04-25T06:41:28;8.60;95.30
6538;DHT22;3302;52.508;13.454;2023-04-25T06:43:53;8.60;95.40
6538;DHT22;3302;52.508;13.454;2023-04-25T06:46:19;8.60;95.30
6538;DHT22;3302;52.508;13.454;2023-04-25T06:48:45;8.70;95.40
6538;DHT22;3302;52.508;13.454;2023-04-25T06:51:11;8.70;95.50
6538;DHT22;3302;52.508;13.454;2023-04-25T06:53:39;8.60;95.40
6538;DHT22;3302;52.508;13.454;2023-04-25T06:56:05;8.60;95.60
6538;DHT22;3302;52.508;13.454;2023-04-25T06:58:31;8.60;95.80
6538;DHT22;3302;52.508;13.454;2023-04-25T07:00:57;8.60;95.60
6538;DHT22;3302;52.508;13.454;2023-04-25T07:03:23;8.50;96.20
6538;DHT22;3302;52.508;13.454;2023-04-25T07:05:50;8.50;96.20
6538;DHT22;3302;52.508;13.454;2023-04-25T07:08:16;8.50;96.40
6538;DHT22;3302;52.508;13.454;2023-04-25T07:10:42;8.40;96.30
6538;DHT22;3302;52.508;13.454;2023-04-25T07:13:08;8.40;96.30
6538;DHT22;3302;52.508;13.454;2023-04-25T07:15:34;8.50;96.30
6538;DHT22;3302;52.508;13.454;2023-04-25T07:18:00;8.50;96.10
6538;DHT22;3302;52.508;13.454;2023-04-25T07:20:26;8.50;96.20
6538;DHT22;3302;52.508;13.454;2023-04-25T07:22:53;8.60;96.40
6538;DHT22;3302;52.508;13.454;2023-04-25T07:25:19;8.50;96.40
6538;DHT22;3302;52.508;13.454;2023-04-25T07:27:45;8.40;96.90
6538;DHT22;3302;52.508;13.454;2023-04-25T07:30:11;8.50;97.00
6538;DHT22;3302;52.508;13.454;2023-04-25T07:32:38;8.50;97.20
6538;DHT22;3302;52.508;13.454;2023-04-25T07:35:04;8.60;97.70
6538;DHT22;3302;52.508;13.454;2023-04-25T07:37:33;8.50;97.10
6538;DHT22;3302;52.508;13.454;2023-04-25T07:39:59;8.40;97.10
6538;DHT22;3302;52.508;13.454;2023-04-25T07:42:25;8.40;96.80
6538;DHT22;3302;52.508;13.454;2023-04-25T07:44:50;8.50;96.50
6538;DHT22;3302;52.508;13.454;2023-04-25T07:47:17;8.50;96.30
6538;DHT22;3302;52.508;13.454;2023-04-25T07:49:44;8.50;95.80
6538;DHT22;3302;52.508;13.454;2023-04-25T07:52:12;8.60;95.50
6538;DHT22;3302;52.508;13.454;2023-04-25T07:54:38;8.60;94.60
6538;DHT22;3302;52.508;13.454;2023-04-25T07:57:03;8.60;94.00
6538;DHT22;3302;52.508;13.454;2023-04-25T07:59:32;8.50;93.70
6538;DHT22;3302;52.508;13.454;2023-04-25T08:01:57;8.60;93.60
6538;DHT22;3302;52.508;13.454;2023-04-25T08:04:24;8.60;93.40
6538;DHT22;3302;52.508;13.454;2023-04-25T08:06:50;8.60;93.30
6538;DHT22;3302;52.508;13.454;2023-04-25T08:09:16;8.50;93.10
6538;DHT22;3302;52.508;13.454;2023-04-25T08:11:42;8.60;93.00
6538;DHT22;3302;52.508;13.454;2023-04-25T08:14:08;8.60;92.80
6538;DHT22;3302;52.508;13.454;2023-04-25T08:16:34;8.90;92.60
6538;DHT22;3302;52.508;13.454;2023-04-25T08:19:00;9.00;92.00
6538;DHT22;3302;52.508;13.454;2023-04-25T08:21:26;9.10;91.90
6538;DHT22;3302;52.508;13.454;2023-04-25T08:23:53;9.10;91.50
6538;DHT22;3302;52.508;13.454;2023-04-25T08:26:18;9.00;90.80
6538;DHT22;3302;52.508;13.454;2023-04-25T08:28:44;9.10;90.50
6538;DHT22;3302;52.508;13.454;2023-04-25T08:31:10;9.10;90.40
6538;DHT22;3302;52.508;13.454;2023-04-25T08:33:36;9.10;90.80
6538;DHT22;3302;52.508;13.454;2023-04-25T08:36:02;9.00;90.70
6538;DHT22;3302;52.508;13.454;2023-04-25T08:38:28;9.10;90.60
6538;DHT22;3302;52.508;13.454;2023-04-25T08:40:54;9.30;89.80
6538;DHT22;3302;52.508;13.454;2023-04-25T08:43:21;9.20;87.80
6538;DHT22;3302;52.508;13.454;2023-04-25T08:45:48;9.10;86.20
6538;DHT22;3302;52.508;13.454;2023-04-25T08:48:16;9.20;84.80
6538;DHT22;3302;52.508;13.454;2023-04-25T08:50:53;9.10;83.30
6538;DHT22;3302;52.508;13.454;2023-04-25T08:53:26;9.10;82.80
6538;DHT22;3302;52.508;13.454;2023-04-25T08:55:54;9.10;81.20
6538;DHT22;3302;52.508;13.454;2023-04-25T08:58:21;9.10;80.60
6538;DHT22;3302;52.508;13.454;2023-04-25T09:00:47;9.20;78.90
6538;DHT22;3302;52.508;13.454;2023-04-25T09:03:13;9.30;77.00
6538;DHT22;3302;52.508;13.454;2023-04-25T09:05:40;9.40;77.60
6538;DHT22;3302;52.508;13.454;2023-04-25T09:08:07;9.40;75.10
6538;DHT22;3302;52.508;13.454;2023-04-25T09:10:33;9.60;75.10
6538;DHT22;3302;52.508;13.454;2023-04-25T09:13:10;9.70;73.40
6538;DHT22;3302;52.508;13.454;2023-04-25T09:15:51;9.50;72.80
6538;DHT22;3302;52.508;13.454;2023-04-25T09:18:31;9.60;71.00
6538;DHT22;3302;52.508;13.454;2023-04-25T09:21:05;9.70;70.40
6538;DHT22;3302;52.508;13.454;2023-04-25T09:23:45;9.80;70.60
6538;DHT22;3302;52.508;13.454;2023-04-25T09:26:15;10.40;68.20
6538;DHT22;3302;52.508;13.454;2023-04-25T09:28:42;10.00;64.20
6538;DHT22;3302;52.508;13.454;2023-04-25T09:31:10;9.90;64.70
6538;DHT22;3302;52.508;13.454;2023-04-25T09:33:40;9.80;64.90
6538;DHT22;3302;52.508;13.454;2023-04-25T09:36:10;9.80;64.70
6538;DHT22;3302;52.508;13.454;2023-04-25T09:38:43;9.80;65.30
6538;DHT22;3302;52.508;13.454;2023-04-25T09:41:10;9.80;65.60
6538;DHT22;3302;52.508;13.454;2023-04-25T09:43:36;10.20;64.20
6538;DHT22;3302;52.508;13.454;2023-04-25T09:46:03;10.30;63.20
6538;DHT22;3302;52.508;13.454;2023-04-25T09:48:33;10.40;61.30
6538;DHT22;3302;52.508;13.454;2023-04-25T09:51:08;10.40;60.40
6538;DHT22;3302;52.508;13.454;2023-04-25T09:53:36;10.40;58.50
6538;DHT22;3302;52.508;13.454;2023-04-25T09:56:04;10.20;56.90
6538;DHT22;3302;52.508;13.454;2023-04-25T09:58:31;10.10;56.30
6538;DHT22;3302;52.508;13.454;2023-04-25T10:01:00;10.10;55.80
6538;DHT22;3302;52.508;13.454;2023-04-25T10:03:26;10.10;56.00
6538;DHT22;3302;52.508;13.454;2023-04-25T10:05:55;10.20;55.80
6538;DHT22;3302;52.508;13.454;2023-04-25T10:08:22;10.20;55.70
6538;DHT22;3302;52.508;13.454;2023-04-25T10:10:49;10.10;55.80
6538;DHT22;3302;52.508;13.454;2023-04-25T10:13:16;10.30;55.70
6538;DHT22;3302;52.508;13.454;2023-04-25T10:15:42;10.20;54.30
6538;DHT22;3302;52.508;13.454;2023-04-25T10:18:08;10.10;54.10
6538;DHT22;3302;52.508;13.454;2023-04-25T10:20:34;10.40;55.20
6538;DHT22;3302;52.508;13.454;2023-04-25T10:23:15;10.50;54.50
6538;DHT22;3302;52.508;13.454;2023-04-25T10:25:43;10.30;54.40
6538;DHT22;3302;52.508;13.454;2023-04-25T10:28:09;10.50;54.00
6538;DHT22;3302;52.508;13.454;2023-04-25T10:30:34;10.30;52.60
6538;DHT22;3302;52.508;13.454;2023-04-25T10:33:00;10.40;52.70
6538;DHT22;3302;52.508;13.454;2023-04-25T10:35:30;10.30;53.10
6538;DHT22;3302;52.508;13.454;2023-04-25T10:40:25;10.30;53.70
6538;DHT22;3302;52.508;13.454;2023-04-25T10:42:52;10.30;54.10
6538;DHT22;3302;52.508;13.454;2023-04-25T10:45:20;10.40;54.40
6538;DHT22;3302;52.508;13.454;2023-04-25T10:47:46;10.30;53.80
6538;DHT22;3302;52.508;13.454;2023-04-25T10:50:14;10.20;54.40
6538;DHT22;3302;52.508;13.454;2023-04-25T10:52:41;10.40;53.90
6538;DHT22;3302;52.508;13.454;2023-04-25T10:55:08;10.40;53.50
6538;DHT22;3302;52.508;13.454;2023-04-25T10:57:40;10.40;53.40
6538;DHT22;3302;52.508;13.454;2023-04-25T11:02:40;10.30;54.10
6538;DHT22;3302;52.508;13.454;2023-04-25T11:05:07;10.40;53.60
6538;DHT22;3302;52.508;13.454;2023-04-25T11:07:39;10.40;52.80
6538;DHT22;3302;52.508;13.454;2023-04-25T11:10:09;10.40;53.50
6538;DHT22;3302;52.508;13.454;2023-04-25T11:12:35;10.50;52.60
6538;DHT22;3302;52.508;13.454;2023-04-25T11:15:05;10.40;52.50
6538;DHT22;3302;52.508;13.454;2023-04-25T11:17:32;10.60;51.80
6538;DHT22;3302;52.508;13.454;2023-04-25T11:19:59;10.30;51.50
6538;DHT22;3302;52.508;13.454;2023-04-25T11:22:26;10.30;51.60
6538;DHT22;3302;52.508;13.454;2023-04-25T11:24:53;10.10;52.00
6538;DHT22;3302;52.508;13.454;2023-04-25T11:27:19;10.10;52.60
6538;DHT22;3302;52.508;13.454;2023-04-25T11:29:44;9.70;54.80
6538;DHT22;3302;52.508;13.454;2023-04-25T11:32:15;9.60;55.30
6538;DHT22;3302;52.508;13.454;2023-04-25T11:34:43;9.70;55.40
6538;DHT22;3302;52.508;13.454;2023-04-25T11:37:10;9.70;54.40
6538;DHT22;3302;52.508;13.454;2023-04-25T11:39:38;9.80;53.50
6538;DHT22;3302;52.508;13.454;2023-04-25T11:42:04;9.80;52.40
6538;DHT22;3302;52.508;13.454;2023-04-25T11:44:31;9.70;50.50
6538;DHT22;3302;52.508;13.454;2023-04-25T11:46:57;9.60;50.20
6538;DHT22;3302;52.508;13.454;2023-04-25T11:49:23;9.70;49.60
6538;DHT22;3302;52.508;13.454;2023-04-25T11:51:50;9.80;49.80
6538;DHT22;3302;52.508;13.454;2023-04-25T11:54:16;9.80;49.20
6538;DHT22;3302;52.508;13.454;2023-04-25T11:56:45;9.70;48.70
6538;DHT22;3302;52.508;13.454;2023-04-25T11:59:12;9.90;48.20
6538;DHT22;3302;52.508;13.454;2023-04-25T12:01:41;9.90;48.20
6538;DHT22;3302;52.508;13.454;2023-04-25T12:04:21;9.90;48.20
6538;DHT22;3302;52.508;13.454;2023-04-25T12:06:49;10.00;48.40
6538;DHT22;3302;52.508;13.454;2023-04-25T12:09:17;9.90;49.10
6538;DHT22;3302;52.508;13.454;2023-04-25T12:14:31;10.00;49.00
6538;DHT22;3302;52.508;13.454;2023-04-25T12:16:58;9.90;50.00
6538;DHT22;3302;52.508;13.454;2023-04-25T12:19:24;9.80;50.00
6538;DHT22;3302;52.508;13.454;2023-04-25T12:21:50;10.10;49.70
6538;DHT22;3302;52.508;13.454;2023-04-25T12:24:24;10.20;49.70
6538;DHT22;3302;52.508;13.454;2023-04-25T12:29:20;10.10;50.10
6538;DHT22;3302;52.508;13.454;2023-04-25T12:31:46;10.20;48.70
6538;DHT22;3302;52.508;13.454;2023-04-25T12:34:13;10.30;47.00
6538;DHT22;3302;52.508;13.454;2023-04-25T12:36:38;10.00;45.00
6538;DHT22;3302;52.508;13.454;2023-04-25T12:39:04;10.30;45.00
6538;DHT22;3302;52.508;13.454;2023-04-25T12:41:31;10.40;45.00
6538;DHT22;3302;52.508;13.454;2023-04-25T12:43:56;10.40;45.50
6538;DHT22;3302;52.508;13.454;2023-04-25T12:46:22;10.30;45.40
6538;DHT22;3302;52.508;13.454;2023-04-25T12:48:51;10.30;45.10
6538;DHT22;3302;52.508;13.454;2023-04-25T12:51:17;10.30;45.70
6538;DHT22;3302;52.508;13.454;2023-04-25T12:53:42;10.60;45.50
6538;DHT22;3302;52.508;13.454;2023-04-25T12:56:08;10.50;46.00
6538;DHT22;3302;52.508;13.454;2023-04-25T12:58:34;10.30;46.10
6538;DHT22;3302;52.508;13.454;2023-04-25T13:01:00;10.20;47.00
6538;DHT22;3302;52.508;13.454;2023-04-25T13:03:25;10.20;47.70
6538;DHT22;3302;52.508;13.454;2023-04-25T13:05:52;10.20;45.60
6538;DHT22;3302;52.508;13.454;2023-04-25T13:08:18;10.30;45.70
6538;DHT22;3302;52.508;13.454;2023-04-25T13:10:44;10.40;45.90
6538;DHT22;3302;52.508;13.454;2023-04-25T13:13:10;10.40;44.40
6538;DHT22;3302;52.508;13.454;2023-04-25T13:15:36;10.50;44.50
6538;DHT22;3302;52.508;13.454;2023-04-25T13:18:03;10.60;45.30
6538;DHT22;3302;52.508;13.454;2023-04-25T13:20:31;10.60;44.90
6538;DHT22;3302;52.508;13.454;2023-04-25T13:22:57;10.30;43.70
6538;DHT22;3302;52.508;13.454;2023-04-25T13:25:23;10.50;43.70
6538;DHT22;3302;52.508;13.454;2023-04-25T13:27:49;10.30;43.90
6538;DHT22;3302;52.508;13.454;2023-04-25T13:30:15;10.60;44.40
6538;DHT22;3302;52.508;13.454;2023-04-25T13:32:40;10.70;44.00
6538;DHT22;3302;52.508;13.454;2023-04-25T13:35:12;10.60;44.50
6538;DHT22;3302;52.508;13.454;2023-04-25T13:37:39;10.50;45.90
6538;DHT22;3302;52.508;13.454;2023-04-25T13:40:08;10.40;46.60
6538;DHT22;3302;52.508;13.454;2023-04-25T13:42:38;10.50;46.80
6538;DHT22;3302;52.508;13.454;2023-04-25T13:45:04;10.60;47.10
6538;DHT22;3302;52.508;13.454;2023-04-25T13:47:30;10.50;47.20
6538;DHT22;3302;52.508;13.454;2023-04-25T13:49:56;10.50;47.60
6538;DHT22;3302;52.508;13.454;2023-04-25T13:52:23;10.50;48.00
6538;DHT22;3302;52.508;13.454;2023-04-25T13:54:50;10.60;47.80
6538;DHT22;3302;52.508;13.454;2023-04-25T13:57:17;10.40;48.20
6538;DHT22;3302;52.508;13.454;2023-04-25T13:59:42;10.40;48.10
6538;DHT22;3302;52.508;13.454;2023-04-25T14:02:08;10.40;48.00
6538;DHT22;3302;52.508;13.454;2023-04-25T14:04:34;10.50;48.40
6538;DHT22;3302;52.508;13.454;2023-04-25T14:07:00;10.40;48.30
6538;DHT22;3302;52.508;13.454;2023-04-25T14:09:27;10.50;48.50
6538;DHT22;3302;52.508;13.454;2023-04-25T14:11:54;10.30;48.70
6538;DHT22;3302;52.508;13.454;2023-04-25T14:14:23;10.30;48.90
6538;DHT22;3302;52.508;13.454;2023-04-25T14:16:50;10.40;49.40
6538;DHT22;3302;52.508;13.454;2023-04-25T14:19:17;10.20;49.00
6538;DHT22;3302;52.508;13.454;2023-04-25T14:21:43;10.00;49.40
6538;DHT22;3302;52.508;13.454;2023-04-25T14:24:09;10.00;49.80
6538;DHT22;3302;52.508;13.454;2023-04-25T14:26:36;10.00;48.60
6538;DHT22;3302;52.508;13.454;2023-04-25T14:29:04;9.90;50.20
6538;DHT22;3302;52.508;13.454;2023-04-25T14:31:30;9.80;50.70
6538;DHT22;3302;52.508;13.454;2023-04-25T14:33:56;9.90;51.10
6538;DHT22;3302;52.508;13.454;2023-04-25T14:36:22;10.10;49.90
6538;DHT22;3302;52.508;13.454;2023-04-25T14:38:47;10.00;49.60
6538;DHT22;3302;52.508;13.454;2023-04-25T14:41:13;10.00;48.90
6538;DHT22;3302;52.508;13.454;2023-04-25T14:43:39;9.80;50.00
6538;DHT22;3302;52.508;13.454;2023-04-25T14:46:08;9.90;50.40
6538;DHT22;3302;52.508;13.454;2023-04-25T14:48:34;10.10;49.30
6538;DHT22;3302;52.508;13.454;2023-04-25T14:51:00;10.30;49.00
6538;DHT22;3302;52.508;13.454;2023-04-25T14:53:27;10.30;49.60
6538;DHT22;3302;52.508;13.454;2023-04-25T14:55:52;10.10;50.10
6538;DHT22;3302;52.508;13.454;2023-04-25T14:58:19;10.10;51.20
6538;DHT22;3302;52.508;13.454;2023-04-25T15:00:46;9.90;52.50
6538;DHT22;3302;52.508;13.454;2023-04-25T15:03:12;10.00;52.30
6538;DHT22;3302;52.508;13.454;2023-04-25T15:05:39;9.90;53.40
6538;DHT22;3302;52.508;13.454;2023-04-25T15:08:05;9.90;54.00
6538;DHT22;3302;52.508;13.454;2023-04-25T15:10:31;9.90;54.00
6538;DHT22;3302;52.508;13.454;2023-04-25T15:12:57;9.80;54.40
6538;DHT22;3302;52.508;13.454;2023-04-25T15:15:23;9.60;55.10
6538;DHT22;3302;52.508;13.454;2023-04-25T15:17:49;9.50;55.50
6538;DHT22;3302;52.508;13.454;2023-04-25T15:20:16;9.60;55.90
6538;DHT22;3302;52.508;13.454;2023-04-25T15:22:43;9.70;55.80
6538;DHT22;3302;52.508;13.454;2023-04-25T15:25:10;9.70;55.90
6538;DHT22;3302;52.508;13.454;2023-04-25T15:27:37;9.60;54.50
6538;DHT22;3302;52.508;13.454;2023-04-25T15:30:09;9.60;54.50
6538;DHT22;3302;52.508;13.454;2023-04-25T15:32:37;9.70;53.90
6538;DHT22;3302;52.508;13.454;2023-04-25T15:35:04;9.80;53.50
6538;DHT22;3302;52.508;13.454;2023-04-25T15:37:34;9.90;50.40
6538;DHT22;3302;52.508;13.454;2023-04-25T15:40:14;9.90;51.40
6538;DHT22;3302;52.508;13.454;2023-04-25T15:42:42;9.90;51.00
6538;DHT22;3302;52.508;13.454;2023-04-25T15:45:10;10.00;50.60
6538;DHT22;3302;52.508;13.454;2023-04-25T15:47:37;10.00;50.00
6538;DHT22;3302;52.508;13.454;2023-04-25T15:50:07;10.10;50.50
6538;DHT22;3302;52.508;13.454;2023-04-25T15:52:35;10.10;50.20
6538;DHT22;3302;52.508;13.454;2023-04-25T15:55:01;10.00;51.10
6538;DHT22;3302;52.508;13.454;2023-04-25T15:57:29;10.20;50.80
6538;DHT22;3302;52.508;13.454;2023-04-25T15:59:55;10.20;50.80
6538;DHT22;3302;52.508;13.454;2023-04-25T16:02:21;10.20;51.40
6538;DHT22;3302;52.508;13.454;2023-04-25T16:04:47;10.30;51.00